Time;durP1;ratioP1;P1;durP2;ratioP2;P2;SDS_P1;SDS_P2;PMS_P1;PMS_P2;Temp;Humidity;BMP_temperature;BMP_pressure;BME280_temperature;BME280_humidity;BME280_pressure;Samples;Min_cycle;Max_cycle;Signal;HPM_P1;HPM_P2
2023/05/26 00:01:57;;;;;;;9.47;5.30;;;;;;;;;;4993184;28;20218;-72
2023/05/26 00:05:01;;;;;;;9.23;5.70;;;;;;;;;;4994159;28;20182;-72
2023/05/26 00:08:09;;;;;;;9.27;5.43;;;;;;;;;;4996341;28;20186;-72
2023/05/26 00:11:13;;;;;;;8.70;5.50;;;;;;;;;;4996802;28;20186;-71
2023/05/26 00:14:17;;;;;;;8.30;5.23;;;;;;;;;;4996218;28;20178;-72
2023/05/26 00:17:22;;;;;;;8.73;5.00;;;;;;;;;;4996731;28;20186;-72
2023/05/26 00:20:26;;;;;;;7.20;5.10;;;;;;;;;;4984573;28;20685;-72
2023/05/26 00:23:30;;;;;;;7.97;5.30;;;;;;;;;;4984590;28;20213;-72
2023/05/26 00:26:34;;;;;;;9.47;5.40;;;;;;;;;;4996697;28;20181;-73
2023/05/26 00:29:39;;;;;;;8.97;5.37;;;;;;;;;;4984968;28;20511;-72
2023/05/26 00:32:44;;;;;;;9.93;5.23;;;;;;;;;;4973436;28;20218;-73
2023/05/26 00:35:48;;;;;;;6.43;4.73;;;;;;;;;;4996725;28;20208;-73
2023/05/26 00:38:52;;;;;;;10.03;5.47;;;;;;;;;;4984425;28;20178;-72
2023/05/26 00:41:57;;;;;;;10.67;5.70;;;;;;;;;;4995521;28;20233;-71
2023/05/26 00:45:01;;;;;;;8.03;5.33;;;;;;;;;;4984484;28;20182;-72
2023/05/26 00:48:05;;;;;;;13.20;5.57;;;;;;;;;;4984492;28;20625;-72
2023/05/26 00:51:11;;;;;;;7.47;5.77;;;;;;;;;;4983979;28;20214;-72
2023/05/26 00:54:19;;;;;;;8.37;5.67;;;;;;;;;;4984058;28;20182;-72
2023/05/26 00:57:23;;;;;;;8.63;5.37;;;;;;;;;;4984054;28;20206;-72
2023/05/26 01:00:27;;;;;;;8.57;5.40;;;;;;;;;;4973027;28;20550;-72
2023/05/26 01:03:32;;;;;;;11.40;5.83;;;;;;;;;;4983904;28;20209;-73
2023/05/26 01:06:36;;;;;;;7.60;5.30;;;;;;;;;;4995751;28;20209;-72
2023/05/26 01:09:40;;;;;;;12.40;5.77;;;;;;;;;;4983944;28;20530;-72
2023/05/26 01:12:51;;;;;;;8.53;5.63;;;;;;;;;;4983723;28;20222;-73
2023/05/26 01:16:01;;;;;;;10.03;5.47;;;;;;;;;;4983758;28;20515;-72
2023/05/26 01:19:19;;;;;;;10.80;6.07;;;;;;;;;;4972682;28;20190;-72
2023/05/26 01:22:45;;;;;;;8.63;5.30;;;;;;;;;;4983683;28;20588;-71
2023/05/26 01:26:17;;;;;;;10.90;5.40;;;;;;;;;;4983793;28;20182;-72
2023/05/26 01:29:24;;;;;;;11.53;5.70;;;;;;;;;;4983702;28;20190;-72
2023/05/26 01:32:28;;;;;;;7.43;5.70;;;;;;;;;;4995855;28;20214;-72
2023/05/26 01:35:32;;;;;;;10.30;6.37;;;;;;;;;;4983281;28;20268;-72
2023/05/26 01:38:39;;;;;;;13.40;6.27;;;;;;;;;;4983255;28;20208;-71
2023/05/26 01:42:18;;;;;;;7.20;5.47;;;;;;;;;;4995196;28;20593;-72
2023/05/26 01:45:25;;;;;;;9.83;5.40;;;;;;;;;;4983405;28;20519;-74
2023/05/26 01:48:32;;;;;;;12.03;6.27;;;;;;;;;;4972120;28;20530;-74
2023/05/26 01:51:38;;;;;;;12.80;5.97;;;;;;;;;;4982921;28;20210;-74
2023/05/26 01:54:53;;;;;;;10.87;6.07;;;;;;;;;;4983225;28;20186;-73
2023/05/26 01:57:58;;;;;;;7.57;5.67;;;;;;;;;;4994836;28;20182;-74
2023/05/26 02:01:07;;;;;;;11.60;6.17;;;;;;;;;;4982695;28;20218;-74
2023/05/26 02:04:12;;;;;;;9.13;6.30;;;;;;;;;;4982988;28;20676;-74
2023/05/26 02:07:16;;;;;;;9.80;5.47;;;;;;;;;;4982990;28;20197;-73
2023/05/26 02:10:20;;;;;;;12.47;5.70;;;;;;;;;;4982974;28;20511;-74
2023/05/26 02:13:24;;;;;;;13.77;5.60;;;;;;;;;;4982562;28;20235;-74
2023/05/26 02:16:28;;;;;;;10.20;5.83;;;;;;;;;;4982757;28;20186;-73
2023/05/26 02:19:32;;;;;;;8.40;5.77;;;;;;;;;;4982723;28;20189;-74
2023/05/26 02:22:36;;;;;;;7.63;5.17;;;;;;;;;;4982554;28;20217;-74
2023/05/26 02:25:41;;;;;;;8.50;5.27;;;;;;;;;;4982920;28;20182;-74
2023/05/26 02:28:44;;;;;;;10.43;5.87;;;;;;;;;;4982399;28;20625;-74
2023/05/26 02:31:49;;;;;;;7.60;5.63;;;;;;;;;;4993652;28;20178;-74
2023/05/26 02:34:56;;;;;;;8.40;5.27;;;;;;;;;;4994460;28;20186;-74
2023/05/26 02:38:00;;;;;;;10.27;5.27;;;;;;;;;;4994382;28;20201;-73
2023/05/26 02:41:04;;;;;;;9.27;5.30;;;;;;;;;;4982329;28;20220;-74
2023/05/26 02:44:08;;;;;;;9.00;5.60;;;;;;;;;;4982361;28;20182;-74
2023/05/26 02:47:12;;;;;;;10.50;5.23;;;;;;;;;;4982380;28;20178;-73
2023/05/26 02:50:17;;;;;;;8.80;5.87;;;;;;;;;;4982153;28;20185;-74
2023/05/26 02:53:21;;;;;;;8.87;5.50;;;;;;;;;;4994139;28;20218;-73
2023/05/26 02:56:25;;;;;;;9.93;5.60;;;;;;;;;;4981921;28;20174;-73
2023/05/26 02:59:29;;;;;;;7.77;5.10;;;;;;;;;;4982218;28;20182;-74
2023/05/26 03:02:34;;;;;;;8.70;5.13;;;;;;;;;;4982197;28;20214;-74
2023/05/26 03:05:39;;;;;;;6.97;5.10;;;;;;;;;;4981830;28;20182;-73
2023/05/26 03:08:43;;;;;;;11.57;5.20;;;;;;;;;;4971033;28;20186;-74
2023/05/26 03:11:47;;;;;;;11.43;5.10;;;;;;;;;;4970693;28;20206;-74
2023/05/26 03:14:51;;;;;;;9.47;4.90;;;;;;;;;;4970928;28;20206;-74
2023/05/26 03:17:56;;;;;;;8.27;5.20;;;;;;;;;;4981943;28;20178;-74
2023/05/26 03:21:02;;;;;;;9.60;4.43;;;;;;;;;;4970389;28;20209;-74
2023/05/26 03:24:06;;;;;;;33.13;7.13;;;;;;;;;;4993557;28;20574;-73
2023/05/26 03:27:10;;;;;;;31.67;6.43;;;;;;;;;;4981611;28;20549;-74
2023/05/26 03:30:15;;;;;;;12.13;5.40;;;;;;;;;;4981793;28;20549;-74
2023/05/26 03:33:21;;;;;;;18.20;5.70;;;;;;;;;;4981473;28;20582;-74
2023/05/26 03:36:26;;;;;;;10.27;5.83;;;;;;;;;;4970352;28;20202;-74
2023/05/26 03:39:34;;;;;;;8.63;4.87;;;;;;;;;;4970502;28;20555;-74
2023/05/26 03:42:39;;;;;;;8.43;5.10;;;;;;;;;;4985137;28;20225;-74
2023/05/26 03:45:43;;;;;;;10.77;5.50;;;;;;;;;;4985534;28;20518;-74
2023/05/26 03:48:47;;;;;;;8.70;5.10;;;;;;;;;;4974009;28;20185;-74
2023/05/26 03:51:51;;;;;;;7.63;5.13;;;;;;;;;;4984891;28;20550;-74
2023/05/26 03:54:55;;;;;;;6.97;5.17;;;;;;;;;;4985333;28;20190;-74
2023/05/26 03:58:00;;;;;;;11.67;5.10;;;;;;;;;;4973868;28;20182;-74
2023/05/26 04:01:04;;;;;;;8.27;5.20;;;;;;;;;;4985111;28;20213;-74
2023/05/26 04:04:09;;;;;;;8.60;4.80;;;;;;;;;;4985141;28;20182;-74
2023/05/26 04:07:12;;;;;;;10.47;5.40;;;;;;;;;;4984809;28;20186;-73
2023/05/26 04:10:17;;;;;;;7.57;5.40;;;;;;;;;;4996973;28;20187;-73
2023/05/26 04:13:21;;;;;;;9.50;5.37;;;;;;;;;;4996683;28;20218;-73
2023/05/26 04:16:26;;;;;;;14.37;5.83;;;;;;;;;;4973780;28;20186;-74
2023/05/26 04:19:32;;;;;;;9.93;5.47;;;;;;;;;;4984664;28;20193;-74
2023/05/26 04:22:39;;;;;;;11.10;5.60;;;;;;;;;;4996588;28;20562;-74
2023/05/26 04:25:43;;;;;;;7.80;5.90;;;;;;;;;;4985013;28;20247;-74
2023/05/26 04:28:57;;;;;;;10.37;6.00;;;;;;;;;;4984701;28;20630;-74
2023/05/26 04:32:16;;;;;;;11.53;5.73;;;;;;;;;;4984803;28;20565;-74
2023/05/26 04:35:34;;;;;;;8.10;4.80;;;;;;;;;;4975039;28;20178;-75
2023/05/26 04:38:45;;;;;;;7.93;5.30;;;;;;;;;;4996757;28;20183;-73
2023/05/26 04:41:50;;;;;;;7.30;5.30;;;;;;;;;;4984216;28;20202;-73
2023/05/26 04:44:55;;;;;;;7.53;5.10;;;;;;;;;;4984195;28;20206;-73
2023/05/26 04:48:00;;;;;;;11.07;6.03;;;;;;;;;;5005016;28;20657;-74
2023/05/26 04:51:05;;;;;;;12.23;5.63;;;;;;;;;;5003542;28;20687;-74
2023/05/26 04:54:10;;;;;;;13.73;6.30;;;;;;;;;;4992631;28;20181;-74
2023/05/26 04:57:15;;;;;;;15.20;5.20;;;;;;;;;;5003519;28;20186;-73
2023/05/26 05:00:24;;;;;;;9.50;4.90;;;;;;;;;;4993262;28;20188;-74
2023/05/26 05:03:33;;;;;;;12.50;6.03;;;;;;;;;;4992800;28;20217;-74
2023/05/26 05:06:54;;;;;;;12.63;5.83;;;;;;;;;;5003690;28;20190;-73
2023/05/26 05:09:59;;;;;;;12.60;6.00;;;;;;;;;;5015632;28;20196;-73
2023/05/26 05:13:03;;;;;;;12.63;5.97;;;;;;;;;;5003208;28;20279;-71
2023/05/26 05:16:08;;;;;;;16.30;5.97;;;;;;;;;;5003327;28;20178;-74
2023/05/26 05:19:13;;;;;;;12.93;6.30;;;;;;;;;;5003122;28;20197;-72
2023/05/26 05:22:28;;;;;;;9.87;5.77;;;;;;;;;;5002848;28;20234;-73
2023/05/26 05:25:32;;;;;;;22.53;6.63;;;;;;;;;;5003268;28;20178;-74
2023/05/26 05:28:37;;;;;;;11.70;5.43;;;;;;;;;;5003294;28;20192;-72
2023/05/26 05:31:46;;;;;;;9.90;5.00;;;;;;;;;;5003003;28;20204;-74
2023/05/26 05:34:50;;;;;;;11.20;5.70;;;;;;;;;;5003054;28;20531;-71
2023/05/26 05:37:56;;;;;;;24.20;6.50;;;;;;;;;;4991613;28;20644;-73
2023/05/26 05:41:01;;;;;;;11.20;5.67;;;;;;;;;;5002535;28;20184;-72
2023/05/26 05:44:05;;;;;;;10.50;4.83;;;;;;;;;;5003053;28;20195;-71
2023/05/26 05:47:09;;;;;;;20.80;5.27;;;;;;;;;;5014837;28;20193;-73
2023/05/26 05:50:23;;;;;;;18.97;5.00;;;;;;;;;;4984663;28;20189;-72
2023/05/26 05:53:28;;;;;;;16.57;5.33;;;;;;;;;;4982892;28;20589;-72
2023/05/26 05:56:33;;;;;;;10.07;5.13;;;;;;;;;;4982980;28;20192;-71
2023/05/26 05:59:38;;;;;;;7.60;4.77;;;;;;;;;;4993979;28;20538;-74
2023/05/26 06:02:42;;;;;;;10.90;5.03;;;;;;;;;;4993643;28;20728;-72
2023/05/26 06:05:47;;;;;;;9.10;5.00;;;;;;;;;;4993762;28;20205;-71
2023/05/26 06:08:51;;;;;;;20.10;5.83;;;;;;;;;;4993843;28;20185;-71
2023/05/26 06:11:55;;;;;;;6.87;4.53;;;;;;;;;;4993821;28;20224;-72
2023/05/26 06:15:00;;;;;;;9.73;4.90;;;;;;;;;;4994163;28;20182;-72
2023/05/26 06:18:04;;;;;;;7.30;4.70;;;;;;;;;;4975253;28;20197;-72
2023/05/26 06:21:09;;;;;;;7.57;4.53;;;;;;;;;;5001840;28;20586;-72
2023/05/26 06:24:14;;;;;;;12.83;5.20;;;;;;;;;;5002249;28;20185;-72
2023/05/26 06:27:18;;;;;;;25.90;5.97;;;;;;;;;;4990747;28;20685;-72
2023/05/26 06:30:24;;;;;;;8.50;4.67;;;;;;;;;;4990945;28;20181;-72
2023/05/26 06:33:42;;;;;;;7.53;4.90;;;;;;;;;;5001726;28;20562;-73
2023/05/26 06:36:46;;;;;;;7.63;4.20;;;;;;;;;;5001743;28;20209;-72
2023/05/26 06:39:50;;;;;;;10.40;5.00;;;;;;;;;;4990413;28;20201;-73
2023/05/26 06:42:59;;;;;;;8.97;4.37;;;;;;;;;;5001152;28;20593;-72
2023/05/26 06:46:04;;;;;;;7.83;4.50;;;;;;;;;;5012880;28;20185;-72
2023/05/26 06:49:09;;;;;;;8.23;4.20;;;;;;;;;;5001172;28;20201;-73
2023/05/26 06:52:23;;;;;;;6.90;4.13;;;;;;;;;;5001139;28;20221;-74
2023/05/26 06:55:27;;;;;;;8.53;4.37;;;;;;;;;;4989883;28;20205;-72
2023/05/26 06:58:31;;;;;;;10.57;4.40;;;;;;;;;;5001320;28;20193;-72
2023/05/26 07:01:36;;;;;;;21.57;5.27;;;;;;;;;;4990096;28;20220;-72
2023/05/26 07:04:41;;;;;;;7.87;5.17;;;;;;;;;;5001217;28;20177;-74
2023/05/26 07:07:45;;;;;;;7.57;4.20;;;;;;;;;;5001519;28;20181;-74
2023/05/26 07:10:49;;;;;;;8.03;4.87;;;;;;;;;;4997946;28;20668;-73
2023/05/26 07:13:53;;;;;;;7.17;4.23;;;;;;;;;;4970700;28;20213;-73
2023/05/26 07:16:58;;;;;;;7.57;4.70;;;;;;;;;;5024589;23;20229;-72
2023/05/26 07:20:02;;;;;;;9.17;4.80;;;;;;;;;;5021018;28;20181;-71
2023/05/26 07:23:07;;;;;;;18.10;5.47;;;;;;;;;;5020704;28;20228;-71
2023/05/26 07:26:12;;;;;;;8.13;4.80;;;;;;;;;;5009750;28;20655;-71
2023/05/26 07:29:16;;;;;;;8.40;5.07;;;;;;;;;;5009766;28;20188;-71
2023/05/26 07:32:20;;;;;;;7.37;4.53;;;;;;;;;;5020989;28;20213;-71
2023/05/26 07:35:25;;;;;;;9.33;5.47;;;;;;;;;;5021070;28;20181;-71
2023/05/26 07:38:29;;;;;;;10.27;5.33;;;;;;;;;;5021318;28;20181;-72
2023/05/26 07:41:34;;;;;;;9.87;5.53;;;;;;;;;;5021070;28;20543;-71
2023/05/26 07:44:39;;;;;;;12.00;4.90;;;;;;;;;;5021086;28;20185;-71
2023/05/26 07:47:43;;;;;;;8.33;5.03;;;;;;;;;;5020819;28;20182;-71
2023/05/26 07:50:47;;;;;;;9.83;5.00;;;;;;;;;;5009467;28;20179;-71
2023/05/26 07:53:51;;;;;;;7.23;4.90;;;;;;;;;;5032990;28;20682;-71
2023/05/26 07:56:55;;;;;;;15.57;5.07;;;;;;;;;;5009777;28;20183;-72
2023/05/26 07:59:59;;;;;;;8.30;4.77;;;;;;;;;;5023267;28;20190;-72
2023/05/26 08:03:04;;;;;;;7.20;4.50;;;;;;;;;;5036037;28;20224;-72
2023/05/26 08:06:08;;;;;;;6.20;4.00;;;;;;;;;;5036839;28;20186;-72
2023/05/26 08:09:12;;;;;;;8.10;4.97;;;;;;;;;;5036940;28;20182;-71
2023/05/26 08:12:16;;;;;;;8.07;4.73;;;;;;;;;;5036637;28;20215;-71
2023/05/26 08:15:21;;;;;;;10.10;4.45;;;;;;;;;;5036179;28;20187;-72
2023/05/26 08:18:25;;;;;;;17.42;5.45;;;;;;;;;;5035584;28;20560;-71
2023/05/26 08:21:29;;;;;;;12.07;5.03;;;;;;;;;;5023164;28;20205;-72
2023/05/26 08:24:33;;;;;;;6.85;4.90;;;;;;;;;;5034044;28;20302;-72
2023/05/26 08:27:38;;;;;;;7.30;4.60;;;;;;;;;;5024694;28;20182;-72
2023/05/26 08:30:42;;;;;;;7.57;4.78;;;;;;;;;;5025132;28;20182;-72
2023/05/26 08:33:46;;;;;;;7.47;4.57;;;;;;;;;;5013311;28;20217;-72
2023/05/26 08:36:50;;;;;;;5.35;4.18;;;;;;;;;;5036721;28;20185;-72
2023/05/26 08:39:57;;;;;;;8.45;4.32;;;;;;;;;;5024481;28;20184;-72
2023/05/26 08:43:09;;;;;;;7.97;4.32;;;;;;;;;;5036135;28;20235;-72
2023/05/26 08:46:14;;;;;;;7.20;4.18;;;;;;;;;;5012762;28;20664;-72
2023/05/26 08:49:19;;;;;;;49.10;7.68;;;;;;;;;;5036484;28;20644;-73
2023/05/26 08:52:24;;;;;;;7.97;4.05;;;;;;;;;;5024670;28;20218;-73
2023/05/26 08:55:28;;;;;;;12.77;4.70;;;;;;;;;;5036753;28;20526;-73
2023/05/26 08:58:34;;;;;;;8.60;4.68;;;;;;;;;;5012586;28;20185;-73
2023/05/26 09:01:38;;;;;;;12.68;5.57;;;;;;;;;;5036079;28;20193;-73
2023/05/26 09:04:42;;;;;;;7.45;4.65;;;;;;;;;;5035921;28;20181;-72
2023/05/26 09:07:47;;;;;;;7.63;4.40;;;;;;;;;;5035530;28;20192;-73
2023/05/26 09:10:51;;;;;;;6.20;4.18;;;;;;;;;;5035545;28;20541;-73
2023/05/26 09:13:56;;;;;;;23.27;5.25;;;;;;;;;;5023138;28;20217;-73
2023/05/26 09:17:03;;;;;;;8.30;4.80;;;;;;;;;;5023146;28;20207;-73
2023/05/26 09:20:08;;;;;;;7.05;4.60;;;;;;;;;;5035501;28;20527;-72
2023/05/26 09:23:15;;;;;;;9.13;4.65;;;;;;;;;;5035925;28;20217;-72
2023/05/26 09:26:24;;;;;;;10.13;4.50;;;;;;;;;;5034913;28;20173;-73
2023/05/26 09:29:28;;;;;;;10.55;4.20;;;;;;;;;;5034951;28;20177;-73
2023/05/26 09:32:33;;;;;;;6.22;4.57;;;;;;;;;;5036441;28;20583;-72
2023/05/26 09:35:39;;;;;;;12.85;5.00;;;;;;;;;;5036810;28;20185;-73
2023/05/26 09:38:45;;;;;;;7.18;4.50;;;;;;;;;;5023909;28;20192;-72
2023/05/26 09:41:50;;;;;;;9.50;4.28;;;;;;;;;;5035920;28;20181;-72
2023/05/26 09:44:55;;;;;;;8.68;4.85;;;;;;;;;;5023467;28;20181;-72
2023/05/26 09:48:00;;;;;;;9.52;4.43;;;;;;;;;;5036564;28;20189;-72
2023/05/26 09:51:04;;;;;;;4.90;4.22;;;;;;;;;;5035185;28;20181;-70
2023/05/26 09:54:09;;;;;;;9.70;4.72;;;;;;;;;;5023207;28;20174;-71
2023/05/26 09:57:15;;;;;;;5.47;4.30;;;;;;;;;;5034983;28;20185;-71
2023/05/26 10:00:21;;;;;;;8.60;4.50;;;;;;;;;;5022307;28;20181;-72
2023/05/26 10:03:27;;;;;;;11.00;5.38;;;;;;;;;;5022176;28;20229;-72
2023/05/26 10:06:31;;;;;;;7.38;4.25;;;;;;;;;;5034401;28;20181;-71
2023/05/26 10:09:37;;;;;;;5.57;4.30;;;;;;;;;;5034376;28;20185;-71
2023/05/26 10:12:42;;;;;;;9.50;4.88;;;;;;;;;;5033927;28;20213;-71
2023/05/26 10:15:48;;;;;;;7.93;4.50;;;;;;;;;;5034591;28;20208;-71
2023/05/26 10:18:52;;;;;;;7.57;4.63;;;;;;;;;;5024062;28;20660;-71
2023/05/26 10:22:04;;;;;;;8.60;4.88;;;;;;;;;;5023805;28;20220;-70
2023/05/26 10:25:21;;;;;;;9.40;4.57;;;;;;;;;;5035665;28;20173;-70
2023/05/26 10:28:37;;;;;;;7.53;4.63;;;;;;;;;;5022513;28;20193;-71
2023/05/26 10:31:41;;;;;;;6.68;4.60;;;;;;;;;;5034522;28;20193;-71
2023/05/26 10:34:48;;;;;;;6.90;4.55;;;;;;;;;;5022058;28;20193;-71
2023/05/26 10:38:01;;;;;;;6.30;4.32;;;;;;;;;;5022133;28;20181;-71
2023/05/26 10:41:14;;;;;;;5.95;4.60;;;;;;;;;;5022187;28;20197;-71
2023/05/26 10:44:55;;;;;;;8.85;4.80;;;;;;;;;;5034053;28;20209;-71
2023/05/26 10:48:07;;;;;;;7.63;4.45;;;;;;;;;;4976540;28;20179;-70
2023/05/26 10:51:23;;;;;;;6.30;4.40;;;;;;;;;;5010590;28;20185;-70
2023/05/26 10:54:27;;;;;;;10.77;4.72;;;;;;;;;;5033858;28;20181;-69
2023/05/26 10:57:33;;;;;;;9.43;4.32;;;;;;;;;;5033825;28;20204;-70
2023/05/26 11:00:37;;;;;;;6.47;4.15;;;;;;;;;;5021763;28;20181;-70
2023/05/26 11:03:46;;;;;;;5.43;4.22;;;;;;;;;;5033461;28;20224;-70
2023/05/26 11:06:58;;;;;;;9.48;4.78;;;;;;;;;;5033977;28;20193;-69
2023/05/26 11:10:08;;;;;;;6.20;4.53;;;;;;;;;;5033630;28;20206;-70
2023/05/26 11:13:12;;;;;;;9.65;5.20;;;;;;;;;;5021282;28;20209;-69
2023/05/26 11:16:19;;;;;;;9.32;4.80;;;;;;;;;;5033204;28;20201;-70
2023/05/26 11:19:34;;;;;;;8.38;4.60;;;;;;;;;;5033662;28;20643;-71
2023/05/26 11:22:38;;;;;;;13.30;4.97;;;;;;;;;;5021341;28;20220;-69
2023/05/26 11:25:46;;;;;;;8.05;4.28;;;;;;;;;;5033421;28;20195;-70
2023/05/26 11:28:51;;;;;;;10.18;4.65;;;;;;;;;;5033166;28;20190;-70
2023/05/26 11:31:56;;;;;;;8.35;4.70;;;;;;;;;;5021200;28;20222;-71
2023/05/26 11:35:01;;;;;;;8.88;4.90;;;;;;;;;;5021109;28;20182;-70
2023/05/26 11:38:05;;;;;;;10.35;4.85;;;;;;;;;;5020948;28;20197;-70
2023/05/26 11:41:11;;;;;;;8.88;4.35;;;;;;;;;;5033149;28;20203;-70
2023/05/26 11:44:15;;;;;;;6.40;4.57;;;;;;;;;;5021265;28;20207;-70
2023/05/26 11:47:24;;;;;;;8.40;4.25;;;;;;;;;;5033541;28;20182;-70
2023/05/26 11:50:28;;;;;;;8.18;4.38;;;;;;;;;;5032293;28;20189;-70
2023/05/26 11:53:32;;;;;;;8.43;4.40;;;;;;;;;;5013225;28;20572;-70
2023/05/26 11:56:37;;;;;;;6.90;4.43;;;;;;;;;;4990434;28;20184;-70
2023/05/26 11:59:41;;;;;;;8.55;4.35;;;;;;;;;;5013532;28;20179;-70
2023/05/26 12:02:45;;;;;;;32.42;6.38;;;;;;;;;;5016803;28;20217;-70
2023/05/26 12:05:50;;;;;;;7.05;4.03;;;;;;;;;;5016861;28;20651;-70
2023/05/26 12:08:54;;;;;;;7.13;4.35;;;;;;;;;;5016885;28;20266;-70
2023/05/26 12:11:59;;;;;;;7.20;4.50;;;;;;;;;;5016685;28;20219;-70
2023/05/26 12:15:07;;;;;;;7.40;4.43;;;;;;;;;;5004629;28;20196;-70
2023/05/26 12:18:11;;;;;;;6.85;4.35;;;;;;;;;;5017106;28;20176;-70
2023/05/26 12:21:15;;;;;;;9.68;5.38;;;;;;;;;;5016795;28;20691;-70
2023/05/26 12:24:29;;;;;;;6.53;4.22;;;;;;;;;;5016434;28;20209;-70
2023/05/26 12:27:38;;;;;;;7.93;4.63;;;;;;;;;;5016524;28;20195;-70
2023/05/26 12:30:42;;;;;;;8.20;4.40;;;;;;;;;;5004546;28;20200;-70
2023/05/26 12:33:46;;;;;;;7.15;4.07;;;;;;;;;;4993548;28;20220;-70
2023/05/26 12:36:50;;;;;;;7.43;4.10;;;;;;;;;;5004404;28;20194;-70
2023/05/26 12:39:54;;;;;;;7.10;4.22;;;;;;;;;;5016432;28;20183;-70
2023/05/26 12:42:58;;;;;;;7.63;4.28;;;;;;;;;;5016161;28;20220;-70
2023/05/26 12:46:03;;;;;;;8.25;4.35;;;;;;;;;;5004837;28;20209;-70
2023/05/26 12:49:08;;;;;;;7.00;4.78;;;;;;;;;;5016245;28;20201;-70
2023/05/26 12:52:12;;;;;;;8.50;4.75;;;;;;;;;;5003923;28;20575;-70
2023/05/26 12:55:21;;;;;;;5.38;4.70;;;;;;;;;;5003856;28;20231;-70
2023/05/26 12:58:25;;;;;;;12.57;4.20;;;;;;;;;;5004101;28;20528;-70
2023/05/26 13:01:29;;;;;;;11.73;5.13;;;;;;;;;;5016070;28;20192;-70
2023/05/26 13:04:35;;;;;;;7.95;4.03;;;;;;;;;;5015966;28;20212;-69
2023/05/26 13:07:39;;;;;;;12.20;4.60;;;;;;;;;;5016547;28;20189;-70
2023/05/26 13:10:44;;;;;;;9.10;4.45;;;;;;;;;;5004065;28;20192;-70
2023/05/26 13:13:48;;;;;;;13.35;4.63;;;;;;;;;;5002672;28;20211;-70
2023/05/26 13:16:52;;;;;;;7.45;4.43;;;;;;;;;;5029772;23;20238;-73
2023/05/26 13:19:57;;;;;;;8.27;4.95;;;;;;;;;;5035007;28;20204;-74
2023/05/26 13:23:02;;;;;;;10.55;4.65;;;;;;;;;;5023172;28;20219;-73
2023/05/26 13:26:09;;;;;;;9.10;4.32;;;;;;;;;;5035125;28;20183;-74
2023/05/26 13:29:13;;;;;;;11.20;4.53;;;;;;;;;;5022981;28;20201;-73
2023/05/26 13:32:17;;;;;;;11.32;4.63;;;;;;;;;;5035058;28;20226;-73
2023/05/26 13:35:22;;;;;;;4.97;4.47;;;;;;;;;;5022519;28;20562;-73
2023/05/26 13:38:26;;;;;;;7.55;4.75;;;;;;;;;;5035074;28;20184;-73
2023/05/26 13:41:30;;;;;;;14.27;5.15;;;;;;;;;;5035075;28;20178;-73
2023/05/26 13:44:34;;;;;;;7.40;4.25;;;;;;;;;;5034957;28;20575;-73
2023/05/26 13:47:38;;;;;;;10.05;4.70;;;;;;;;;;5022253;28;20203;-74
2023/05/26 13:50:44;;;;;;;8.25;4.38;;;;;;;;;;5034390;28;20269;-74
2023/05/26 13:53:48;;;;;;;8.50;4.60;;;;;;;;;;5034288;28;20568;-74
2023/05/26 13:56:52;;;;;;;8.80;4.43;;;;;;;;;;5034396;28;20194;-74
2023/05/26 13:59:57;;;;;;;16.58;4.63;;;;;;;;;;5034241;28;20184;-74
2023/05/26 14:03:02;;;;;;;9.55;4.88;;;;;;;;;;5022011;28;20227;-74
2023/05/26 14:06:06;;;;;;;15.05;4.97;;;;;;;;;;5021865;28;20179;-74
2023/05/26 14:09:10;;;;;;;8.52;4.65;;;;;;;;;;5034303;28;20184;-74
2023/05/26 14:12:17;;;;;;;7.70;4.75;;;;;;;;;;5034219;28;20210;-74
2023/05/26 14:15:21;;;;;;;9.43;4.10;;;;;;;;;;5033926;28;20196;-74
2023/05/26 14:18:26;;;;;;;8.70;4.43;;;;;;;;;;5034170;28;20203;-74
2023/05/26 14:21:30;;;;;;;26.67;5.57;;;;;;;;;;5010371;28;20541;-74
2023/05/26 14:24:34;;;;;;;6.93;4.20;;;;;;;;;;5033675;28;20223;-74
2023/05/26 14:27:38;;;;;;;6.00;4.13;;;;;;;;;;5021886;28;20183;-74
2023/05/26 14:30:42;;;;;;;6.07;4.30;;;;;;;;;;5021688;28;20518;-73
2023/05/26 14:33:46;;;;;;;6.22;4.57;;;;;;;;;;5021432;28;20218;-74
2023/05/26 14:36:50;;;;;;;11.85;4.30;;;;;;;;;;5010373;28;20517;-71
2023/05/26 14:39:54;;;;;;;7.40;4.80;;;;;;;;;;5033803;28;20186;-71
2023/05/26 14:42:58;;;;;;;7.50;4.78;;;;;;;;;;5033355;28;20566;-73
2023/05/26 14:46:02;;;;;;;8.10;4.38;;;;;;;;;;5033507;28;20212;-74
2023/05/26 14:49:08;;;;;;;7.10;4.25;;;;;;;;;;5033458;28;20187;-74
2023/05/26 14:52:12;;;;;;;4.72;3.97;;;;;;;;;;5021565;28;20214;-74
2023/05/26 14:55:17;;;;;;;7.82;4.43;;;;;;;;;;5021146;28;20638;-74
2023/05/26 14:58:21;;;;;;;5.63;3.83;;;;;;;;;;5033579;28;20185;-74
2023/05/26 15:01:25;;;;;;;7.10;4.50;;;;;;;;;;5033426;28;20636;-74
2023/05/26 15:04:31;;;;;;;51.97;7.95;;;;;;;;;;5020874;28;20211;-74
2023/05/26 15:07:35;;;;;;;8.30;4.25;;;;;;;;;;5020879;28;20186;-73
2023/05/26 15:10:39;;;;;;;8.15;4.50;;;;;;;;;;5021196;28;20186;-74
2023/05/26 15:13:43;;;;;;;6.93;4.38;;;;;;;;;;5032935;28;20560;-71
2023/05/26 15:16:47;;;;;;;7.40;4.30;;;;;;;;;;5033041;28;20206;-72
2023/05/26 15:19:51;;;;;;;6.53;4.03;;;;;;;;;;5032925;28;20189;-72
2023/05/26 15:22:56;;;;;;;10.18;4.10;;;;;;;;;;5032812;28;20559;-71
2023/05/26 15:26:00;;;;;;;10.18;4.57;;;;;;;;;;5032727;28;20223;-71
2023/05/26 15:29:04;;;;;;;7.65;3.83;;;;;;;;;;5032898;28;20221;-71
2023/05/26 15:32:09;;;;;;;6.65;4.53;;;;;;;;;;5021109;28;20578;-71
2023/05/26 15:35:13;;;;;;;8.70;3.70;;;;;;;;;;5020829;28;20519;-71
2023/05/26 15:38:17;;;;;;;6.78;4.38;;;;;;;;;;5037072;28;20191;-71
2023/05/26 15:41:22;;;;;;;5.15;3.78;;;;;;;;;;5036933;28;20179;-71
2023/05/26 15:44:27;;;;;;;10.98;4.15;;;;;;;;;;5036829;28;20220;-71
2023/05/26 15:47:32;;;;;;;5.80;3.92;;;;;;;;;;5037164;28;20199;-74
2023/05/26 15:50:36;;;;;;;6.03;3.90;;;;;;;;;;5024713;28;20553;-73
2023/05/26 15:53:41;;;;;;;6.70;4.40;;;;;;;;;;5036700;28;20221;-73
2023/05/26 15:56:45;;;;;;;6.15;4.10;;;;;;;;;;5024310;28;20186;-73
2023/05/26 15:59:50;;;;;;;8.70;4.30;;;;;;;;;;5036622;28;20659;-74
2023/05/26 16:02:54;;;;;;;5.93;3.80;;;;;;;;;;5036680;28;20218;-74
2023/05/26 16:06:00;;;;;;;6.45;3.50;;;;;;;;;;5012820;28;20224;-74
2023/05/26 16:09:06;;;;;;;15.75;4.70;;;;;;;;;;5036780;28;20178;-73
2023/05/26 16:12:11;;;;;;;6.33;4.10;;;;;;;;;;5036095;28;20229;-74
2023/05/26 16:15:15;;;;;;;6.83;4.40;;;;;;;;;;5024013;28;20199;-73
2023/05/26 16:18:19;;;;;;;7.13;3.70;;;;;;;;;;5036102;28;20172;-73
2023/05/26 16:21:23;;;;;;;9.03;4.00;;;;;;;;;;5024626;28;20188;-73
2023/05/26 16:24:28;;;;;;;6.27;4.40;;;;;;;;;;5036181;28;20220;-74
2023/05/26 16:27:32;;;;;;;6.37;4.27;;;;;;;;;;5036077;28;20660;-74
2023/05/26 16:30:36;;;;;;;9.13;3.77;;;;;;;;;;5035902;28;20175;-74
2023/05/26 16:33:40;;;;;;;6.73;4.30;;;;;;;;;;5035965;28;20214;-74
2023/05/26 16:36:45;;;;;;;7.03;4.20;;;;;;;;;;5023787;28;20173;-74
2023/05/26 16:39:49;;;;;;;6.83;3.67;;;;;;;;;;5036119;28;20186;-73
2023/05/26 16:42:53;;;;;;;6.27;4.37;;;;;;;;;;5035879;28;20686;-74
2023/05/26 16:45:57;;;;;;;8.17;4.10;;;;;;;;;;5035460;28;20216;-74
2023/05/26 16:49:03;;;;;;;5.40;3.83;;;;;;;;;;5023553;28;20202;-74
2023/05/26 16:52:07;;;;;;;8.37;4.13;;;;;;;;;;5035693;28;20222;-73
2023/05/26 16:55:12;;;;;;;12.07;4.27;;;;;;;;;;5023774;28;20182;-73
2023/05/26 16:58:16;;;;;;;15.13;4.27;;;;;;;;;;5023434;28;20198;-73
2023/05/26 17:01:20;;;;;;;7.63;3.80;;;;;;;;;;5035208;28;20193;-73
2023/05/26 17:04:24;;;;;;;6.13;3.67;;;;;;;;;;5023310;28;20177;-74
2023/05/26 17:07:28;;;;;;;6.53;4.10;;;;;;;;;;5023806;28;20177;-73
2023/05/26 17:10:32;;;;;;;6.20;3.73;;;;;;;;;;5035636;28;20179;-73
2023/05/26 17:13:36;;;;;;;9.33;4.20;;;;;;;;;;5035091;28;20215;-74
2023/05/26 17:16:41;;;;;;;7.93;4.37;;;;;;;;;;5035195;28;20200;-73
2023/05/26 17:19:46;;;;;;;8.03;4.23;;;;;;;;;;5035136;28;20183;-73
2023/05/26 17:22:50;;;;;;;14.10;5.03;;;;;;;;;;5022799;28;20218;-73
2023/05/26 17:25:54;;;;;;;5.97;4.20;;;;;;;;;;5022803;28;20683;-73
2023/05/26 17:28:58;;;;;;;9.50;4.27;;;;;;;;;;5034796;28;20198;-74
2023/05/26 17:32:02;;;;;;;4.97;3.73;;;;;;;;;;5011193;28;20227;-73
2023/05/26 17:35:07;;;;;;;5.73;4.00;;;;;;;;;;5022590;28;20642;-73
2023/05/26 17:38:11;;;;;;;5.93;3.67;;;;;;;;;;5035074;28;20197;-73
2023/05/26 17:41:15;;;;;;;5.57;3.87;;;;;;;;;;5022318;28;20544;-72
2023/05/26 17:44:19;;;;;;;40.00;5.73;;;;;;;;;;5011752;28;20200;-73
2023/05/26 17:47:26;;;;;;;7.20;3.83;;;;;;;;;;5034886;28;20707;-73
2023/05/26 17:50:31;;;;;;;6.87;4.03;;;;;;;;;;5022244;28;20177;-73
2023/05/26 17:53:35;;;;;;;7.23;3.97;;;;;;;;;;5022350;28;20548;-73
2023/05/26 17:56:40;;;;;;;11.20;4.23;;;;;;;;;;5034723;28;20176;-73
2023/05/26 17:59:44;;;;;;;6.90;3.90;;;;;;;;;;5033766;28;20190;-73
2023/05/26 18:02:48;;;;;;;11.63;4.10;;;;;;;;;;5034187;28;20216;-73
2023/05/26 18:05:52;;;;;;;4.87;3.60;;;;;;;;;;5022325;28;20213;-73
2023/05/26 18:08:56;;;;;;;5.20;3.90;;;;;;;;;;5033986;28;20196;-73
2023/05/26 18:12:02;;;;;;;8.33;4.20;;;;;;;;;;5021816;28;20220;-73
2023/05/26 18:15:07;;;;;;;10.60;4.03;;;;;;;;;;5021831;28;20176;-73
2023/05/26 18:18:11;;;;;;;7.90;3.93;;;;;;;;;;5021945;28;20184;-73
2023/05/26 18:21:15;;;;;;;5.60;3.63;;;;;;;;;;5033727;28;20639;-73
2023/05/26 18:24:19;;;;;;;6.83;4.30;;;;;;;;;;5022257;28;20180;-73
2023/05/26 18:27:23;;;;;;;7.93;3.97;;;;;;;;;;5021514;28;20177;-72